Ophir, Oregon
Current Conditions -  °F | °C
As of 1:56 PM on Friday 24 Oct 2014 (Local Time) from KBOK Reporting Station
Broken Clouds Broken Clouds  
Wind Chill: 18°   Ceiling: 4300
Heat Index: 18°   Visibility: 10mi
Dew Point: 14°   Wind: 10mph
Humidity: 78%   Direction: 160°SSE
Pressure: 29.8"   Gusts: NA
Location:  42.56°N, 124.39°W
Report Text: KBOK 242056Z AUTO 16009KT 10SM BKN043 BKN055 18/14 A2980 RMK AO2 58016 60000 T01830144 BKN V SCT SLP091
Loading
Personal Weather Stations






























Interactive Weather Map
Tropical Storm Tracking
New forecast layout! Learn more

10-Day Weather Forecast

Advertisements
Track Severe Weather on mobile